Home   Weather   Ely   Past weeks
Flag for USA

Past Weather in Ely, Minnesota, USA — Yesterday and Last 2 Weeks

Currently: 48 °F. Clear. (Weather station: Sky Harbor Airport, USA). See more current weather

Past Weather in Ely — Graph

°F

Ely Temperature Yesterday

Maximum temperature yesterday: 63 °F (at 10:35 am)
Minimum temperature yesterday: 52 °F (at 10:15 pm)
Average temperature yesterday: 58 °F

High & Low Weather Summary for the Past Weeks

 TemperatureHumidityPressure
High75 °F (May 18, 5:35 pm)100% (May 16, 4:15 am)30.20 "Hg (May 16, 4:15 am)
Low41 °F (May 16, 4:15 am)29% (May 19, 1:35 pm)29.26 "Hg (May 22, 2:55 am)
Average51 °F82%29.78 "Hg
* Reported May 14 1:15 am — May 29 1:55 am, Ely. Weather by CustomWeather, © 2024

Note: Actual official high and low records may vary slightly from our data, if they occured in-between our weather recording intervals... More about our weather records

Ely Weather History for the Previous 24 Hours

Scroll right to see more
 ConditionsComfort  
Time TempWeatherWind HumidityBarometerVisibility
1:55 am
Wed, May 29
50 °FClear.5 mph94%30.20 "Hg10 mi
1:35 am50 °FClear.6 mph94%30.20 "Hg10 mi
1:15 am50 °FClear.6 mph100%30.20 "Hg10 mi
12:35 am50 °FClear.No wind94%30.20 "Hg10 mi
12:15 am50 °FPassing clouds.No wind94%30.20 "Hg10 mi
11:55 pm
Tue, May 28
52 °FPassing clouds.5 mph88%30.20 "Hg10 mi
11:35 pm52 °FClear.No wind94%30.19 "Hg10 mi
11:15 pm52 °FClear.7 mph94%30.18 "Hg10 mi
10:55 pm52 °FClear.3 mph100%30.18 "Hg10 mi
10:35 pm52 °FPassing clouds.No wind100%30.17 "Hg10 mi
10:15 pm52 °FPartly cloudy.6 mph100%30.16 "Hg10 mi
9:55 pm54 °FPassing clouds.5 mph94%30.16 "Hg10 mi
9:35 pm54 °FPassing clouds.5 mph94%30.15 "Hg10 mi
9:15 pm55 °FPartly cloudy.3 mph88%30.14 "Hg10 mi
8:35 pm57 °FCloudy.5 mph77%30.12 "Hg10 mi
8:15 pm59 °FPartly sunny.5 mph68%30.11 "Hg10 mi
7:55 pm61 °FScattered clouds.No wind63%30.11 "Hg10 mi
7:35 pm61 °FSunny.No wind63%30.10 "Hg10 mi
7:15 pm59 °FPartly sunny.6 mph77%30.10 "Hg10 mi
6:55 pm57 °FMore clouds than sun.5 mph77%30.10 "Hg10 mi
6:35 pm61 °FMostly cloudy.6 mph72%30.10 "Hg10 mi
6:15 pm59 °FPartly sunny.5 mph68%30.09 "Hg10 mi
5:55 pm57 °FLight rain. Broken clouds.No wind72%30.10 "Hg3 mi
5:35 pm61 °FPartly sunny.5 mph63%30.10 "Hg10 mi
5:15 pm61 °FMostly cloudy.7 mph59%30.09 "Hg10 mi
4:55 pm61 °FMostly cloudy.8 mph55%30.08 "Hg10 mi
4:35 pm61 °FBroken clouds.8 mph59%30.08 "Hg7 mi
4:15 pm63 °FScattered clouds.12 mph52%30.07 "Hg8 mi
3:35 pm63 °FPassing clouds.No wind49%30.06 "Hg9 mi
3:15 pm61 °FScattered clouds.No wind52%30.06 "Hg10 mi
2:35 pm61 °FLight rain. Scattered clouds.6 mph55%30.05 "Hg8 mi
1:55 pm57 °FLight rain. Cloudy.12 mph72%30.05 "Hg7 mi
1:15 pm61 °FPartly sunny.12 mph55%30.04 "Hg10 mi
12:55 pm63 °FBroken clouds.10 mph52%30.04 "Hg10 mi
12:35 pm61 °FCloudy.5 mph52%30.04 "Hg10 mi
12:15 pm61 °FCloudy.No wind52%30.04 "Hg10 mi
11:55 am61 °FCloudy.6 mph55%30.04 "Hg10 mi
11:35 am63 °FPartly sunny.6 mph52%30.03 "Hg8 mi
11:15 am63 °FSunny.7 mph52%30.03 "Hg8 mi
10:55 am63 °FSunny.10 mph56%30.03 "Hg9 mi
10:35 am63 °FSunny.8 mph56%30.03 "Hg9 mi
10:15 am61 °FSunny.10 mph63%30.02 "Hg10 mi
9:35 am61 °FMostly cloudy.10 mph63%30.03 "Hg10 mi
9:15 am57 °FMostly cloudy.6 mph72%30.02 "Hg10 mi
8:35 am55 °FLight rain. Passing clouds.No wind77%30.01 "Hg9 mi
7:55 am54 °FLight rain. Sunny.5 mph77%30.01 "Hg9 mi
7:35 am54 °FLight rain. Partly sunny.10 mph82%30.00 "Hg7 mi
7:15 am55 °FOvercast.13 mph72%29.99 "Hg10 mi
6:55 am55 °FOvercast.7 mph77%29.99 "Hg10 mi
6:35 am55 °FMostly cloudy.6 mph77%29.98 "Hg10 mi
6:15 am55 °FMostly cloudy.6 mph77%29.97 "Hg10 mi
5:55 am55 °FMore clouds than sun.5 mph82%29.96 "Hg10 mi
5:35 am55 °FMostly cloudy.5 mph82%29.95 "Hg10 mi
5:15 am55 °FMostly cloudy.3 mph82%29.94 "Hg10 mi
4:55 am55 °FOvercast.5 mph82%29.94 "Hg10 mi
4:35 am55 °FOvercast.7 mph82%29.93 "Hg10 mi
4:15 am55 °FMostly cloudy.5 mph82%29.93 "Hg10 mi
3:35 am55 °FOvercast.5 mph88%29.92 "Hg10 mi
Weather by CustomWeather, © 2024

See weather overview